Airports

 

 

Airport Name Latest METAR Visual Conditions
Augusta Regional Airport (AGS) KAGS 131053Z 00000KT 7SM FEW010 21/20 A3005 RMK AO2 SLP175 T02060200 $ VFR
Hartsfield-Jackson Atlanta International Airport (ATL) KATL 131052Z 09011KT 10SM FEW008 SCT016 BKN075 BKN200 22/19 A3008 RMK AO2 SLP173 SCT016 V BKN T02170194 VFR
Asheville Regional Airport (AVL) KAVL 131054Z 00000KT 8SM FEW080 16/16 A3018 RMK AO2 SLP196 T01610156 VFR
Birmingham-Shuttlesworth International Airport (BHM) KBHM 131053Z 35003KT 10SM SCT250 20/17 A3006 RMK AO2 SLP172 T02000167 VFR
Chattanooga Metropolitan Airport (CHA) KCHA 131053Z 36005KT 10SM SCT034 SCT045 BKN065 BKN250 22/16 A3009 RMK AO2 SLP180 T02170156 $ VFR
Charlotte Douglas International Airport (CLT) KCLT 131052Z 34005KT 10SM SCT240 18/17 A3012 RMK SLP194 T01780167 VFR
Greenville-Spartanburg International Airport (GSP) KGSP 131053Z 01003KT 10SM SCT070 19/17 A3012 RMK AO2 SLP188 T01890172 VFR
Montgomery Regional Airport (MGM) KMGM 131053Z 00000KT 6SM BR OVC004 23/23 A3001 RMK AO2 SLP161 T02330228 LIFR
Tri-Cities Regional Airport (TRI) KTRI 131053Z 00000KT 10SM FEW150 14/13 A3015 RMK AO2 SLP189 T01390128 VFR
McGhee Tyson Airport (TYS) KTYS 131053Z 05003KT 10SM BKN065 17/15 A3009 RMK AO2 SLP181 T01720150 VFR